Time;durP1;ratioP1;P1;durP2;ratioP2;P2;SDS_P1;SDS_P2;PMS_P1;PMS_P2;Temp;Humidity;BMP_temperature;BMP_pressure;BME280_temperature;BME280_humidity;BME280_pressure;Samples;Min_cycle;Max_cycle;Signal;HPM_P1;HPM_P2
2023/07/22 00:02:48;;;;;;;;;;;;;;;16.05;100.00;95686.28;10469088;28;1834;-71
2023/07/22 00:07:51;;;;;;;;;;;;;;;15.24;100.00;95685.50;10475396;28;1906;-73
2023/07/22 00:12:54;;;;;;;;;;;;;;;14.90;100.00;95686.75;10477787;28;1910;-72
2023/07/22 00:17:57;;;;;;;;;;;;;;;15.34;100.00;95679.84;10478389;28;2330;-75
2023/07/22 00:23:02;;;;;;;;;;;;;;;15.88;100.00;95683.47;10473682;28;2155;-72
2023/07/22 00:28:05;;;;;;;;;;;;;;;15.33;100.00;95678.22;10478593;28;1975;-70
2023/07/22 00:33:08;;;;;;;;;;;;;;;15.62;100.00;95680.56;10476939;28;2021;-69
2023/07/22 00:38:11;;;;;;;;;;;;;;;15.61;100.00;95677.03;10473857;28;1996;-69
2023/07/22 00:43:14;;;;;;;;;;;;;;;16.16;100.00;95663.22;10468816;28;4612;-69
2023/07/22 00:48:19;;;;;;;;;;;;;;;16.18;100.00;95660.19;10463454;28;2022;-70
2023/07/22 00:53:21;;;;;;;;;;;;;;;15.88;100.00;95656.34;10466698;28;1972;-69
2023/07/22 00:58:24;;;;;;;;;;;;;;;15.46;100.00;95644.91;10480747;28;1942;-70
2023/07/22 01:03:28;;;;;;;;;;;;;;;15.36;100.00;95647.84;10477845;28;2147;-70
2023/07/22 01:08:31;;;;;;;;;;;;;;;15.48;100.00;95641.88;10480719;28;1977;-71
2023/07/22 01:13:33;;;;;;;;;;;;;;;14.85;100.00;95641.66;10475045;28;2322;-70
2023/07/22 01:18:37;;;;;;;;;;;;;;;14.49;100.00;95651.59;10482184;28;1942;-70
2023/07/22 01:23:39;;;;;;;;;;;;;;;14.19;100.00;95645.69;10481773;28;1979;-70
2023/07/22 01:28:42;;;;;;;;;;;;;;;14.04;100.00;95654.06;10472708;28;2040;-69
2023/07/22 01:33:45;;;;;;;;;;;;;;;14.17;100.00;95663.28;10479629;28;2021;-70
2023/07/22 01:38:47;;;;;;;;;;;;;;;14.60;100.00;95651.09;10488174;28;1969;-75
2023/07/22 01:43:50;;;;;;;;;;;;;;;14.96;100.00;95647.66;10484062;28;4818;-67
2023/07/22 01:48:57;;;;;;;;;;;;;;;15.14;100.00;95648.59;10483267;28;2078;-69
2023/07/22 01:54:00;;;;;;;;;;;;;;;15.81;100.00;95661.41;10476633;28;2129;-69
2023/07/22 01:59:05;;;;;;;;;;;;;;;16.36;100.00;95650.22;10481141;28;2082;-75
2023/07/22 02:04:07;;;;;;;;;;;;;;;16.32;100.00;95655.47;10480113;28;1949;-68
2023/07/22 02:09:13;;;;;;;;;;;;;;;15.97;100.00;95654.50;10463070;28;2281;-70
2023/07/22 02:14:15;;;;;;;;;;;;;;;16.18;100.00;95650.16;10480420;28;1956;-70
2023/07/22 02:19:18;;;;;;;;;;;;;;;16.17;100.00;95664.81;10478196;28;1969;-71
2023/07/22 02:24:21;;;;;;;;;;;;;;;16.37;100.00;95658.03;10485616;28;1968;-69
2023/07/22 02:29:23;;;;;;;;;;;;;;;15.99;100.00;95663.13;10477955;28;1979;-69
2023/07/22 02:34:26;;;;;;;;;;;;;;;15.93;100.00;95665.16;10480793;28;1999;-69
2023/07/22 02:39:29;;;;;;;;;;;;;;;15.77;100.00;95660.41;10486232;28;1905;-69
2023/07/22 02:44:31;;;;;;;;;;;;;;;15.52;100.00;95667.22;10481481;28;4686;-68
2023/07/22 02:49:35;;;;;;;;;;;;;;;15.53;100.00;95666.94;10463766;28;1987;-69
2023/07/22 02:54:39;;;;;;;;;;;;;;;15.81;100.00;95666.84;10481759;28;2274;-69
2023/07/22 02:59:43;;;;;;;;;;;;;;;16.44;100.00;95671.94;10461060;28;2041;-69
2023/07/22 03:04:47;;;;;;;;;;;;;;;16.63;100.00;95671.72;10477462;28;2354;-71
2023/07/22 03:09:49;;;;;;;;;;;;;;;16.78;100.00;95672.41;10484805;28;1973;-71
2023/07/22 03:14:52;;;;;;;;;;;;;;;16.57;100.00;95672.97;10482675;28;1976;-70
2023/07/22 03:19:54;;;;;;;;;;;;;;;16.07;100.00;95678.63;10462827;28;2220;-70
2023/07/22 03:24:57;;;;;;;;;;;;;;;15.59;100.00;95678.47;10480695;28;1992;-69
2023/07/22 03:30:00;;;;;;;;;;;;;;;15.24;100.00;95688.19;10482636;28;1946;-69
2023/07/22 03:35:04;;;;;;;;;;;;;;;14.90;100.00;95683.25;10473163;28;7333;-70
2023/07/22 03:40:11;;;;;;;;;;;;;;;15.48;100.00;95683.31;10484732;28;5471;-69
2023/07/22 03:45:14;;;;;;;;;;;;;;;15.68;100.00;95690.97;10458707;28;1999;-69
2023/07/22 03:50:18;;;;;;;;;;;;;;;16.08;100.00;95696.50;10485713;28;5462;-69
2023/07/22 03:55:21;;;;;;;;;;;;;;;16.57;100.00;95691.94;10473735;28;1958;-69
2023/07/22 04:00:24;;;;;;;;;;;;;;;16.65;100.00;95691.19;10472550;28;1932;-70
2023/07/22 04:05:27;;;;;;;;;;;;;;;16.62;100.00;95689.09;10459399;28;2166;-69
2023/07/22 04:10:30;;;;;;;;;;;;;;;16.44;100.00;95698.28;10472056;28;1973;-69
2023/07/22 04:15:33;;;;;;;;;;;;;;;16.74;100.00;95700.19;10477641;28;2303;-69
2023/07/22 04:20:36;;;;;;;;;;;;;;;16.81;100.00;95704.38;10475863;28;1976;-69
2023/07/22 04:25:39;;;;;;;;;;;;;;;17.00;100.00;95702.97;10476587;28;1928;-69
2023/07/22 04:30:42;;;;;;;;;;;;;;;17.04;100.00;95708.56;10474909;28;1999;-69
2023/07/22 04:35:46;;;;;;;;;;;;;;;17.46;100.00;95698.09;10475167;28;1985;-71
2023/07/22 04:40:50;;;;;;;;;;;;;;;17.25;100.00;95701.44;10473405;28;2878;-69
2023/07/22 04:45:54;;;;;;;;;;;;;;;17.63;100.00;95681.78;10473679;28;2120;-70
2023/07/22 04:50:57;;;;;;;;;;;;;;;18.06;100.00;95675.50;10473779;28;2084;-69
2023/07/22 04:56:02;;;;;;;;;;;;;;;17.83;100.00;95681.16;10482239;28;2068;-69
2023/07/22 05:01:05;;;;;;;;;;;;;;;17.83;100.00;95681.16;10485261;28;1925;-69
2023/07/22 05:06:08;;;;;;;;;;;;;;;18.03;100.00;95689.78;10483660;28;1972;-71
2023/07/22 05:11:10;;;;;;;;;;;;;;;17.97;100.00;95689.13;10486649;28;1985;-68
2023/07/22 05:16:15;;;;;;;;;;;;;;;18.16;100.00;95688.00;10481895;28;2231;-69
2023/07/22 05:21:19;;;;;;;;;;;;;;;18.20;100.00;95695.19;10484257;28;1956;-69
2023/07/22 05:26:22;;;;;;;;;;;;;;;18.47;100.00;95709.50;10484558;28;1921;-70
2023/07/22 05:31:25;;;;;;;;;;;;;;;18.27;100.00;95700.94;10485493;28;2010;-70
2023/07/22 05:36:28;;;;;;;;;;;;;;;18.20;100.00;95702.56;10481292;28;2463;-69
2023/07/22 05:41:32;;;;;;;;;;;;;;;18.50;100.00;95687.06;10487118;28;5312;-68
2023/07/22 05:46:35;;;;;;;;;;;;;;;18.46;100.00;95697.03;10480210;28;1974;-70
2023/07/22 05:51:37;;;;;;;;;;;;;;;18.38;100.00;95693.19;10481789;28;1973;-72
2023/07/22 05:56:41;;;;;;;;;;;;;;;18.35;100.00;95691.94;10482400;28;1968;-70
2023/07/22 06:01:46;;;;;;;;;;;;;;;18.71;100.00;95695.38;10474463;28;1971;-69
2023/07/22 06:06:48;;;;;;;;;;;;;;;18.95;100.00;95697.47;10483770;28;2016;-69
2023/07/22 06:11:51;;;;;;;;;;;;;;;19.35;100.00;95695.16;10482286;28;1965;-69
2023/07/22 06:16:54;;;;;;;;;;;;;;;19.58;100.00;95692.94;10476765;28;2267;-69
2023/07/22 06:21:57;;;;;;;;;;;;;;;19.21;100.00;95703.56;10484726;28;2294;-70
2023/07/22 06:27:01;;;;;;;;;;;;;;;19.61;100.00;95711.34;10484064;28;2007;-69
2023/07/22 06:32:04;;;;;;;;;;;;;;;20.33;100.00;95718.25;10465949;28;1917;-69
2023/07/22 06:37:07;;;;;;;;;;;;;;;20.30;100.00;95713.47;10478182;28;2696;-69
2023/07/22 06:42:09;;;;;;;;;;;;;;;20.24;100.00;95720.28;10473814;28;5949;-69
2023/07/22 06:47:13;;;;;;;;;;;;;;;21.02;100.00;95720.19;10479203;28;2171;-70
2023/07/22 06:52:15;;;;;;;;;;;;;;;20.72;100.00;95724.25;10460977;28;2002;-70
2023/07/22 06:57:18;;;;;;;;;;;;;;;20.17;100.00;95717.28;10480298;28;1984;-69
2023/07/22 07:02:21;;;;;;;;;;;;;;;20.60;100.00;95721.50;10481488;28;2126;-69
2023/07/22 07:07:24;;;;;;;;;;;;;;;20.81;100.00;95721.44;10479093;28;1980;-70
2023/07/22 07:12:29;;;;;;;;;;;;;;;20.14;100.00;95717.94;10475131;28;1948;-69
2023/07/22 07:17:32;;;;;;;;;;;;;;;20.11;100.00;95724.09;10468715;28;2052;-70
2023/07/22 07:22:35;;;;;;;;;;;;;;;20.56;100.00;95728.81;10455613;28;2319;-69
2023/07/22 07:27:40;;;;;;;;;;;;;;;20.00;100.00;95726.44;10473420;28;7531;-86
2023/07/22 07:32:47;;;;;;;;;;;;;;;20.63;100.00;95729.03;10484565;28;2104;-88
2023/07/22 07:37:52;;;;;;;;;;;;;;;21.12;100.00;95724.41;10484516;28;1988;-78
2023/07/22 07:42:55;;;;;;;;;;;;;;;21.85;100.00;95734.47;10478983;28;2373;-78
2023/07/22 07:48:00;;;;;;;;;;;;;;;21.52;100.00;95729.97;10489822;28;3827;-84
2023/07/22 07:53:06;;;;;;;;;;;;;;;21.19;100.00;95726.56;10478267;28;1927;-84
2023/07/22 07:58:09;;;;;;;;;;;;;;;20.87;100.00;95741.94;10482381;28;1957;-86
2023/07/22 08:03:12;;;;;;;;;;;;;;;20.89;100.00;95740.44;10460109;28;6696;-84
2023/07/22 08:08:16;;;;;;;;;;;;;;;20.81;100.00;95738.63;10487328;28;2023;-84
2023/07/22 08:13:23;;;;;;;;;;;;;;;20.41;100.00;95743.84;10483677;28;1949;-83
2023/07/22 08:18:28;;;;;;;;;;;;;;;20.66;100.00;95736.53;10483851;28;2059;-81
2023/07/22 08:23:33;;;;;;;;;;;;;;;21.74;100.00;95734.13;10483098;28;2282;-83
2023/07/22 08:28:36;;;;;;;;;;;;;;;22.07;100.00;95736.66;10484243;28;1990;-81
2023/07/22 08:33:38;;;;;;;;;;;;;;;22.02;100.00;95742.41;10482791;28;1985;-79
2023/07/22 08:38:45;;;;;;;;;;;;;;;21.88;100.00;95743.91;10489374;28;5221;-81
2023/07/22 08:43:48;;;;;;;;;;;;;;;22.40;97.79;95727.44;10486307;28;1933;-86
2023/07/22 08:48:53;;;;;;;;;;;;;;;22.68;92.28;95724.63;10487647;28;1920;-87
2023/07/22 08:53:59;;;;;;;;;;;;;;;22.21;95.20;95728.09;10487142;28;1948;-89
2023/07/22 08:59:16;;;;;;;;;;;;;;;22.34;87.82;95726.09;10469112;28;2063;-89
2023/07/22 09:04:21;;;;;;;;;;;;;;;22.11;83.73;95729.38;10483628;28;2012;-89
2023/07/22 09:09:28;;;;;;;;;;;;;;;22.42;78.15;95730.59;10482370;28;1989;-88
2023/07/22 09:14:39;;;;;;;;;;;;;;;22.54;72.53;95724.28;10472999;28;1997;-89
2023/07/22 09:19:46;;;;;;;;;;;;;;;22.27;64.74;95720.44;10493489;28;2080;-84
2023/07/22 09:24:49;;;;;;;;;;;;;;;22.56;75.67;95714.53;10489583;28;2052;-86
2023/07/22 09:29:53;;;;;;;;;;;;;;;22.81;70.26;95708.91;10497091;28;2027;-88
2023/07/22 09:35:03;;;;;;;;;;;;;;;23.18;67.75;95715.72;10489075;28;2399;-91
2023/07/22 09:40:09;;;;;;;;;;;;;;;22.79;61.25;95711.22;10492745;28;1921;-88
2023/07/22 09:45:26;;;;;;;;;;;;;;;22.32;64.37;95701.78;10486559;28;2021;-88
2023/07/22 09:50:38;;;;;;;;;;;;;;;22.33;67.47;95703.41;10495050;28;2057;-89
2023/07/22 09:55:50;;;;;;;;;;;;;;;22.38;69.99;95705.84;10477271;28;2120;-90
2023/07/22 10:00:58;;;;;;;;;;;;;;;22.73;69.94;95702.47;10494744;28;1976;-89
2023/07/22 10:06:09;;;;;;;;;;;;;;;22.39;65.05;95699.25;10500119;28;2025;-88
2023/07/22 10:11:24;;;;;;;;;;;;;;;23.02;70.91;95694.94;10487240;28;1989;-88
2023/07/22 10:16:44;;;;;;;;;;;;;;;23.34;59.66;95688.25;10487749;28;1940;-88
2023/07/22 10:21:52;;;;;;;;;;;;;;;23.33;62.87;95688.63;10489778;28;2003;-88
2023/07/22 10:27:02;;;;;;;;;;;;;;;23.16;63.53;95685.13;10502193;28;2344;-88
2023/07/22 10:32:19;;;;;;;;;;;;;;;23.78;62.57;95682.56;10484143;28;1910;-89
2023/07/22 10:43:21;;;;;;;;;;;;;;;23.73;55.28;95691.13;10481473;28;2083;-89
2023/07/22 10:48:37;;;;;;;;;;;;;;;23.40;57.09;95675.06;10464416;28;2053;-89
2023/07/22 10:53:46;;;;;;;;;;;;;;;24.43;53.71;95665.41;10487445;28;2020;-90
2023/07/22 10:58:49;;;;;;;;;;;;;;;26.04;47.71;95666.69;10474021;28;2024;-90
2023/07/22 11:04:10;;;;;;;;;;;;;;;26.75;45.33;95658.38;10486360;28;1904;-89
2023/07/22 11:09:18;;;;;;;;;;;;;;;26.96;47.56;95652.25;10486164;28;2176;-91
2023/07/22 11:14:26;;;;;;;;;;;;;;;25.85;48.60;95642.88;10480048;28;1963;-89
2023/07/22 11:19:31;;;;;;;;;;;;;;;25.47;48.16;95640.38;10481680;28;2176;-89
2023/07/22 11:24:41;;;;;;;;;;;;;;;25.48;47.85;95640.00;10485868;28;1960;-89
2023/07/22 11:29:58;;;;;;;;;;;;;;;25.16;51.10;95634.06;10484907;28;2004;-90
2023/07/22 11:35:07;;;;;;;;;;;;;;;26.52;51.52;95625.50;10484836;28;2011;-89
2023/07/22 11:40:10;;;;;;;;;;;;;;;26.60;46.92;95607.84;10472971;28;2277;-89
2023/07/22 11:45:15;;;;;;;;;;;;;;;26.18;48.12;95610.97;10511340;28;1978;-90
2023/07/22 11:50:22;;;;;;;;;;;;;;;26.05;49.98;95609.66;10488661;28;1939;-86
2023/07/22 11:55:28;;;;;;;;;;;;;;;26.45;46.19;95591.56;10511608;28;1909;-87
2023/07/22 12:00:38;;;;;;;;;;;;;;;26.39;46.64;95593.84;10468784;28;2016;-88
2023/07/22 12:05:44;;;;;;;;;;;;;;;26.61;43.54;95594.88;10480409;28;1980;-88
2023/07/22 12:10:53;;;;;;;;;;;;;;;24.87;46.17;95585.25;10470607;28;1975;-89
2023/07/22 12:15:57;;;;;;;;;;;;;;;24.69;47.57;95572.06;10484704;28;1965;-89
2023/07/22 12:21:11;;;;;;;;;;;;;;;24.25;48.34;95572.50;10490140;28;2009;-88
2023/07/22 13:17:47;;;;;;;;;;;;;;;26.11;43.02;95534.56;10516414;28;2023;-91
2023/07/22 13:40:32;;;;;;;;;;;;;;;26.26;40.40;95521.69;10514644;28;1811;-92
2023/07/22 13:46:12;;;;;;;;;;;;;;;26.57;39.02;95516.84;10538781;27;1871;-91
2023/07/22 13:51:43;;;;;;;;;;;;;;;26.53;40.65;95521.53;10531525;28;1910;-91
2023/07/22 14:02:48;;;;;;;;;;;;;;;26.58;36.38;95515.66;10500228;28;1812;-93
2023/07/22 14:13:53;;;;;;;;;;;;;;;25.58;38.56;95528.47;10503914;28;2024;-92
2023/07/22 14:52:37;;;;;;;;;;;;;;;26.48;38.55;95514.44;10496963;28;1973;-92
2023/07/22 14:58:12;;;;;;;;;;;;;;;26.40;37.80;95507.25;10482063;28;1917;-91
2023/07/22 15:14:49;;;;;;;;;;;;;;;27.34;36.02;95493.66;10508255;28;1879;-90
2023/07/22 15:19:57;;;;;;;;;;;;;;;25.73;36.58;95491.69;10488438;28;1969;-92
2023/07/22 15:30:43;;;;;;;;;;;;;;;26.19;37.11;95485.03;10486109;28;1967;-89
2023/07/22 15:36:11;;;;;;;;;;;;;;;26.64;36.15;95483.81;10474560;28;4571;-91
2023/07/22 15:41:19;;;;;;;;;;;;;;;26.71;36.25;95481.09;10486188;28;1886;-94
2023/07/22 15:47:07;;;;;;;;;;;;;;;25.63;38.79;95486.06;10488218;28;1931;-93
2023/07/22 16:03:12;;;;;;;;;;;;;;;26.56;38.27;95471.16;10532684;27;1756;-91
2023/07/22 16:13:46;;;;;;;;;;;;;;;26.16;37.87;95481.09;10512839;28;1983;-90
2023/07/22 16:19:01;;;;;;;;;;;;;;;25.95;38.98;95484.44;10497588;28;2001;-90
2023/07/22 16:41:10;;;;;;;;;;;;;;;25.19;39.91;95475.72;10560917;27;1991;-93
2023/07/22 16:46:13;;;;;;;;;;;;;;;24.79;40.52;95477.94;10528597;28;1657;-91
2023/07/22 16:51:37;;;;;;;;;;;;;;;24.51;43.21;95488.56;10510103;28;2053;-91
2023/07/22 16:56:59;;;;;;;;;;;;;;;24.50;41.63;95484.22;10489884;28;2353;-92
2023/07/22 17:02:28;;;;;;;;;;;;;;;24.76;42.38;95478.72;10487673;28;1944;-91
2023/07/22 17:07:47;;;;;;;;;;;;;;;24.66;41.80;95473.84;10500146;28;1779;-92
2023/07/22 17:12:56;;;;;;;;;;;;;;;24.39;43.78;95478.56;10493511;28;1767;-92
2023/07/22 17:18:07;;;;;;;;;;;;;;;24.22;44.50;95476.28;10509718;28;1952;-90
2023/07/22 17:23:18;;;;;;;;;;;;;;;23.95;44.70;95478.22;10493196;28;1642;-90
2023/07/22 17:34:12;;;;;;;;;;;;;;;23.40;48.83;95477.59;10495988;28;1855;-90
2023/07/22 17:39:22;;;;;;;;;;;;;;;23.37;49.13;95475.56;10520297;28;1915;-90
2023/07/22 17:49:58;;;;;;;;;;;;;;;23.38;51.28;95472.47;10512292;28;1913;-90
2023/07/22 17:55:04;;;;;;;;;;;;;;;23.25;53.62;95470.25;10502100;28;1876;-88
2023/07/22 18:00:32;;;;;;;;;;;;;;;23.06;54.14;95479.28;10512489;28;2212;-91
2023/07/22 18:05:38;;;;;;;;;;;;;;;23.00;53.65;95467.81;10505825;28;1848;-79
2023/07/22 18:10:41;;;;;;;;;;;;;;;22.93;54.44;95467.66;10495877;28;1899;-83
2023/07/22 18:15:46;;;;;;;;;;;;;;;22.75;55.57;95472.72;10497833;28;1885;-81
2023/07/22 18:20:51;;;;;;;;;;;;;;;22.62;58.10;95479.47;10493933;28;2169;-82
2023/07/22 18:25:54;;;;;;;;;;;;;;;22.46;58.97;95476.78;10497374;28;1690;-83
2023/07/22 18:31:07;;;;;;;;;;;;;;;22.32;59.44;95485.44;10494065;28;1989;-82
2023/07/22 18:36:13;;;;;;;;;;;;;;;22.16;63.75;95486.66;10504060;28;4552;-83
2023/07/22 18:41:18;;;;;;;;;;;;;;;21.95;65.41;95493.16;10504045;28;1890;-82
2023/07/22 18:46:29;;;;;;;;;;;;;;;21.82;66.90;95497.09;10483462;28;1876;-82
2023/07/22 18:51:43;;;;;;;;;;;;;;;21.65;75.68;95509.19;10486557;28;2120;-83
2023/07/22 18:56:51;;;;;;;;;;;;;;;21.40;73.34;95507.72;10497269;28;2235;-83
2023/07/22 19:02:10;;;;;;;;;;;;;;;21.17;75.58;95499.25;10485609;28;1866;-83
2023/07/22 19:07:15;;;;;;;;;;;;;;;21.03;77.07;95502.38;10484218;28;1824;-81
2023/07/22 19:12:27;;;;;;;;;;;;;;;20.79;80.07;95508.69;10488190;28;1827;-82
2023/07/22 19:17:32;;;;;;;;;;;;;;;20.59;87.71;95518.63;10485541;28;1898;-81
2023/07/22 19:22:49;;;;;;;;;;;;;;;20.46;85.59;95519.78;10482701;28;1884;-81
2023/07/22 19:27:53;;;;;;;;;;;;;;;20.39;92.61;95517.59;10481281;28;1925;-81
2023/07/22 19:33:08;;;;;;;;;;;;;;;20.30;88.75;95527.84;10486701;28;1872;-83
2023/07/22 19:38:18;;;;;;;;;;;;;;;20.16;91.30;95535.56;10477775;28;4556;-82
2023/07/22 19:44:17;;;;;;;;;;;;;;;19.95;94.33;95530.22;10475794;28;1979;-83
2023/07/22 19:49:49;;;;;;;;;;;;;;;19.86;94.34;95535.78;10476008;28;1899;-83
2023/07/22 19:54:57;;;;;;;;;;;;;;;19.79;98.89;95540.19;10479104;28;1880;-83
2023/07/22 20:00:13;;;;;;;;;;;;;;;19.79;98.99;95551.91;10452699;28;1910;-83
2023/07/22 20:05:18;;;;;;;;;;;;;;;19.78;100.00;95550.28;10476436;28;2112;-82
2023/07/22 20:10:26;;;;;;;;;;;;;;;19.72;100.00;95557.09;10479130;28;1893;-83
2023/07/22 20:15:36;;;;;;;;;;;;;;;19.77;100.00;95570.50;10474700;28;1982;-83
2023/07/22 20:26:05;;;;;;;;;;;;;;;19.60;100.00;95559.81;10480212;28;1992;-83
2023/07/22 20:31:13;;;;;;;;;;;;;;;19.72;100.00;95565.28;10480857;28;1903;-83
2023/07/22 20:36:31;;;;;;;;;;;;;;;19.77;100.00;95567.00;10478176;28;4540;-82
2023/07/22 20:41:52;;;;;;;;;;;;;;;19.89;100.00;95565.09;10480452;28;1975;-82
2023/07/22 20:47:05;;;;;;;;;;;;;;;19.87;100.00;95564.66;10483007;28;1757;-80
2023/07/22 20:52:08;;;;;;;;;;;;;;;19.75;100.00;95564.63;10483386;28;1931;-82
2023/07/22 20:57:16;;;;;;;;;;;;;;;19.75;100.00;95572.78;10476352;28;1985;-82
2023/07/22 21:02:26;;;;;;;;;;;;;;;19.87;100.00;95575.56;10478888;28;1820;-84
2023/07/22 21:07:34;;;;;;;;;;;;;;;19.58;100.00;95567.50;10479528;28;2111;-84
2023/07/22 21:12:41;;;;;;;;;;;;;;;19.40;100.00;95558.66;10480170;28;1839;-84
2023/07/22 21:17:44;;;;;;;;;;;;;;;19.25;100.00;95562.81;10480054;28;1922;-76
2023/07/22 21:22:48;;;;;;;;;;;;;;;19.09;100.00;95572.75;10475341;28;1988;-78
2023/07/22 21:27:55;;;;;;;;;;;;;;;19.13;100.00;95565.47;10484103;28;1864;-78
2023/07/22 21:33:09;;;;;;;;;;;;;;;19.06;100.00;95565.22;10481809;28;1924;-75
2023/07/22 21:38:12;;;;;;;;;;;;;;;18.99;100.00;95567.69;10482358;28;4761;-76
2023/07/22 21:43:18;;;;;;;;;;;;;;;18.97;100.00;95569.94;10481610;28;2048;-78
2023/07/22 21:48:23;;;;;;;;;;;;;;;18.80;100.00;95565.41;10478189;28;2776;-80
2023/07/22 21:53:35;;;;;;;;;;;;;;;18.74;100.00;95572.16;10483953;28;1892;-79
2023/07/22 21:58:38;;;;;;;;;;;;;;;18.46;100.00;95571.84;10481392;28;2033;-80
2023/07/22 22:03:41;;;;;;;;;;;;;;;18.39;100.00;95579.72;10489791;28;1876;-80
2023/07/22 22:08:48;;;;;;;;;;;;;;;18.43;100.00;95575.19;10485029;28;1970;-79
2023/07/22 22:14:07;;;;;;;;;;;;;;;18.26;100.00;95576.09;10488303;28;1945;-79
2023/07/22 22:19:10;;;;;;;;;;;;;;;18.24;100.00;95584.56;10486663;28;1910;-79
2023/07/22 22:24:22;;;;;;;;;;;;;;;18.17;100.00;95587.00;10481651;28;1946;-79
2023/07/22 22:29:27;;;;;;;;;;;;;;;18.16;100.00;95584.63;10484515;28;1954;-81
2023/07/22 22:34:35;;;;;;;;;;;;;;;18.10;100.00;95589.44;10486259;28;1839;-81
2023/07/22 22:39:43;;;;;;;;;;;;;;;18.21;100.00;95595.31;10484221;28;4592;-80
2023/07/22 22:44:58;;;;;;;;;;;;;;;18.13;100.00;95583.31;10486483;28;1844;-79
2023/07/22 22:50:02;;;;;;;;;;;;;;;18.09;100.00;95585.13;10482569;28;1891;-80
2023/07/22 22:55:17;;;;;;;;;;;;;;;18.05;100.00;95589.59;10487171;28;1903;-81
2023/07/22 23:00:27;;;;;;;;;;;;;;;18.01;100.00;95586.75;10485625;28;1971;-80
2023/07/22 23:05:37;;;;;;;;;;;;;;;18.01;100.00;95585.97;10494406;28;2312;-79
2023/07/22 23:10:50;;;;;;;;;;;;;;;17.98;100.00;95597.47;10485508;28;1867;-78
2023/07/22 23:15:54;;;;;;;;;;;;;;;17.97;100.00;95593.16;10484286;28;1805;-79
2023/07/22 23:20:58;;;;;;;;;;;;;;;17.92;100.00;95575.09;10482696;28;2027;-79
2023/07/22 23:26:02;;;;;;;;;;;;;;;17.74;100.00;95579.78;10484933;28;1951;-79
2023/07/22 23:31:14;;;;;;;;;;;;;;;17.88;100.00;95592.38;10475970;28;1845;-79
2023/07/22 23:36:24;;;;;;;;;;;;;;;17.76;100.00;95580.28;10481788;28;4627;-80
2023/07/22 23:41:28;;;;;;;;;;;;;;;17.59;100.00;95576.75;10479139;28;1910;-80
2023/07/22 23:46:40;;;;;;;;;;;;;;;17.55;100.00;95582.03;10482943;28;1879;-79
2023/07/22 23:51:47;;;;;;;;;;;;;;;17.52;100.00;95583.47;10477437;28;1957;-79
2023/07/22 23:57:08;;;;;;;;;;;;;;;17.46;100.00;95589.41;10483525;28;1879;-82
